Time;durP1;ratioP1;P1;durP2;ratioP2;P2;SDS_P1;SDS_P2;PMS_P1;PMS_P2;Temp;Humidity;BMP_temperature;BMP_pressure;BME280_temperature;BME280_humidity;BME280_pressure;Samples;Min_cycle;Max_cycle;Signal;HPM_P1;HPM_P2
2023/01/18 06:00:36;;;;;;;4.30;4.00;;;4.30;97.20;;;;;;1714021;28;20672;-68
2023/01/18 06:01:27;;;;;;;3.90;3.60;;;4.30;97.20;;;;;;1714226;28;20213;-67
2023/01/18 06:02:19;;;;;;;4.30;3.92;;;4.30;97.20;;;;;;1713964;28;20589;-68
2023/01/18 06:03:10;;;;;;;3.92;3.63;;;4.30;97.20;;;;;;1714120;28;20243;-67
2023/01/18 06:04:01;;;;;;;4.73;4.20;;;4.30;97.20;;;;;;1714032;28;20212;-68
2023/01/18 06:04:52;;;;;;;4.65;4.25;;;4.30;97.20;;;;;;1714071;28;20206;-68
2023/01/18 06:05:44;;;;;;;4.03;3.73;;;4.30;97.20;;;;;;1713477;28;20202;-67
2023/01/18 06:06:34;;;;;;;4.43;4.13;;;4.30;97.20;;;;;;1713975;28;20205;-67
2023/01/18 06:07:26;;;;;;;4.30;4.00;;;4.30;97.20;;;;;;1713597;28;20281;-68
2023/01/18 06:08:17;;;;;;;5.68;4.30;;;4.30;97.20;;;;;;1714185;28;20205;-67
2023/01/18 06:09:09;;;;;;;4.25;3.85;;;4.30;97.20;;;;;;1714140;28;20206;-68
2023/01/18 06:10:00;;;;;;;4.30;3.95;;;4.30;97.20;;;;;;1713542;28;20222;-67
2023/01/18 06:10:53;;;;;;;4.00;3.70;;;4.30;97.20;;;;;;1713711;28;20463;-68
2023/01/18 06:11:43;;;;;;;4.50;4.10;;;4.30;97.20;;;;;;1713730;28;20445;-68
2023/01/18 06:12:35;;;;;;;3.97;3.67;;;4.30;97.20;;;;;;1713584;28;20198;-67
2023/01/18 06:13:28;;;;;;;4.40;4.00;;;4.30;97.20;;;;;;1714068;28;20201;-67
2023/01/18 06:14:19;;;;;;;3.97;3.67;;;4.30;97.20;;;;;;1714005;28;20668;-68
2023/01/18 06:15:11;;;;;;;4.72;4.32;;;4.30;97.20;;;;;;1714145;28;20206;-68
2023/01/18 06:16:04;;;;;;;3.85;3.65;;;4.30;97.20;;;;;;1713545;28;20233;-68
2023/01/18 06:16:55;;;;;;;4.47;4.13;;;4.30;97.20;;;;;;1713891;28;20205;-69
2023/01/18 06:17:47;;;;;;;3.90;3.70;;;4.30;97.20;;;;;;1713941;28;20205;-67
2023/01/18 06:18:38;;;;;;;5.20;4.80;;;4.30;97.20;;;;;;1713911;28;20464;-67
2023/01/18 06:19:30;;;;;;;4.38;4.07;;;4.30;97.20;;;;;;1714093;28;20198;-67
2023/01/18 06:20:21;;;;;;;4.13;3.83;;;4.30;97.20;;;;;;1713319;28;20202;-68
2023/01/18 06:21:12;;;;;;;3.90;3.70;;;4.30;97.20;;;;;;1711476;28;20201;-67
2023/01/18 06:22:03;;;;;;;3.65;3.45;;;4.30;97.20;;;;;;1713415;28;20688;-67
2023/01/18 06:22:55;;;;;;;4.07;3.77;;;4.30;97.20;;;;;;1719020;28;20730;-68
2023/01/18 06:23:46;;;;;;;4.20;3.90;;;4.30;97.20;;;;;;1713151;28;20202;-67
2023/01/18 06:24:38;;;;;;;4.38;4.00;;;4.30;97.20;;;;;;1712934;28;20239;-67
2023/01/18 06:25:29;;;;;;;4.45;4.07;;;4.30;97.20;;;;;;1708852;28;20282;-67
2023/01/18 06:26:22;;;;;;;4.00;3.70;;;4.30;97.20;;;;;;1712261;28;20285;-67
2023/01/18 06:27:13;;;;;;;4.03;3.63;;;4.30;97.20;;;;;;1717763;28;20459;-67
2023/01/18 06:28:05;;;;;;;3.50;3.30;;;4.30;97.20;;;;;;1713484;28;20297;-68
2023/01/18 06:28:57;;;;;;;3.83;3.53;;;4.30;97.20;;;;;;1713516;28;20457;-67
2023/01/18 06:29:48;;;;;;;4.28;3.97;;;4.30;97.20;;;;;;1713416;28;20573;-67
2023/01/18 06:30:41;;;;;;;4.22;3.83;;;4.30;97.20;;;;;;1712955;28;20225;-67
2023/01/18 06:31:35;;;;;;;4.50;3.80;;;4.30;97.20;;;;;;1713455;28;20206;-66
2023/01/18 06:32:27;;;;;;;3.60;3.33;;;4.30;97.20;;;;;;1712495;28;20292;-67
2023/01/18 06:33:18;;;;;;;3.67;3.47;;;4.30;97.20;;;;;;1713167;28;20201;-67
2023/01/18 06:34:09;;;;;;;3.90;3.60;;;4.30;97.20;;;;;;1713614;28;20213;-67
2023/01/18 06:35:00;;;;;;;3.80;3.50;;;4.30;97.20;;;;;;1713486;28;20210;-67
2023/01/18 06:35:52;;;;;;;4.22;3.92;;;4.30;97.20;;;;;;1712870;28;20204;-67
2023/01/18 06:36:44;;;;;;;3.55;3.30;;;4.30;97.20;;;;;;1713153;28;20213;-67
2023/01/18 06:37:35;;;;;;;3.70;3.40;;;4.30;97.20;;;;;;1713504;28;20631;-68
2023/01/18 06:38:26;;;;;;;4.50;4.10;;;4.30;97.20;;;;;;1713275;28;20205;-68
2023/01/18 06:39:18;;;;;;;4.57;4.10;;;4.30;97.20;;;;;;1713079;28;20198;-67
2023/01/18 06:40:10;;;;;;;5.32;4.25;;;4.30;97.20;;;;;;1713567;28;20820;-67
2023/01/18 06:41:02;;;;;;;4.10;3.80;;;4.30;97.20;;;;;;1713645;28;20277;-66
2023/01/18 06:41:53;;;;;;;3.80;3.45;;;4.20;97.20;;;;;;1713155;28;20216;-67
2023/01/18 06:42:48;;;;;;;4.20;3.80;;;4.20;97.20;;;;;;1715937;28;20674;-67
2023/01/18 06:43:39;;;;;;;4.00;3.70;;;4.20;97.20;;;;;;1713455;28;20540;-67
2023/01/18 06:44:30;;;;;;;4.60;4.20;;;4.20;97.20;;;;;;1713509;28;20220;-67
2023/01/18 06:45:21;;;;;;;3.30;3.10;;;4.20;97.20;;;;;;1713467;28;20445;-67
2023/01/18 06:46:13;;;;;;;3.80;3.50;;;4.20;97.20;;;;;;1712770;28;20216;-69
2023/01/18 06:47:05;;;;;;;3.40;3.10;;;4.20;97.20;;;;;;1713408;28;20608;-67
2023/01/18 06:47:57;;;;;;;3.75;3.45;;;4.20;97.20;;;;;;1713690;28;20201;-67
2023/01/18 06:48:48;;;;;;;4.05;3.70;;;4.10;97.20;;;;;;1713864;28;20209;-66
2023/01/18 06:49:40;;;;;;;3.60;3.20;;;4.10;97.20;;;;;;1713669;28;20206;-66
2023/01/18 06:50:31;;;;;;;3.72;3.28;;;4.10;97.20;;;;;;1713621;28;20241;-67
2023/01/18 06:51:22;;;;;;;4.43;4.03;;;4.10;97.20;;;;;;1713608;28;20206;-67
2023/01/18 06:52:14;;;;;;;3.72;3.42;;;4.20;97.20;;;;;;1713691;28;20217;-66
2023/01/18 06:53:05;;;;;;;3.80;3.50;;;4.20;97.20;;;;;;1714762;28;20561;-67
2023/01/18 06:53:56;;;;;;;4.05;3.55;;;4.20;97.20;;;;;;1713403;28;20197;-67
2023/01/18 06:54:48;;;;;;;3.30;3.10;;;4.20;97.20;;;;;;1711559;28;20208;-67
2023/01/18 06:55:38;;;;;;;3.67;3.47;;;4.20;97.20;;;;;;1712746;28;20209;-68
2023/01/18 06:56:30;;;;;;;4.67;4.27;;;4.20;97.20;;;;;;1713872;28;20208;-67
2023/01/18 06:57:22;;;;;;;3.72;3.42;;;4.20;97.20;;;;;;1713246;28;20201;-68
2023/01/18 06:58:14;;;;;;;4.18;3.78;;;4.20;97.20;;;;;;1713475;28;20197;-68
2023/01/18 06:59:05;;;;;;;4.20;3.90;;;4.20;97.20;;;;;;1713931;28;20582;-67
2023/01/18 06:59:57;;;;;;;4.45;4.05;;;4.20;97.20;;;;;;1713680;28;20208;-68
2023/01/18 07:00:47;;;;;;;3.90;3.60;;;4.20;97.20;;;;;;1713531;28;20222;-68
2023/01/18 07:01:39;;;;;;;4.50;4.10;;;4.20;97.20;;;;;;1713947;28;20201;-68
2023/01/18 07:02:32;;;;;;;4.10;3.70;;;4.10;97.20;;;;;;1713810;28;20198;-68
2023/01/18 07:03:24;;;;;;;5.20;3.90;;;4.10;97.20;;;;;;1720229;28;20208;-68
2023/01/18 07:04:14;;;;;;;4.50;3.85;;;4.10;97.20;;;;;;1720261;28;20220;-67
2023/01/18 07:05:07;;;;;;;4.20;3.90;;;4.10;97.20;;;;;;1718032;28;20200;-67
2023/01/18 07:05:59;;;;;;;4.40;4.00;;;4.10;97.20;;;;;;1712669;28;20206;-68
2023/01/18 07:06:51;;;;;;;4.35;4.03;;;4.10;97.20;;;;;;1713211;28;20268;-67
2023/01/18 07:07:41;;;;;;;4.80;4.32;;;4.10;97.20;;;;;;1713470;28;20206;-67
2023/01/18 07:08:34;;;;;;;5.03;4.53;;;4.10;97.20;;;;;;1713426;28;20214;-66
2023/01/18 07:09:25;;;;;;;4.60;4.25;;;4.10;97.20;;;;;;1713344;28;20228;-67
2023/01/18 07:10:17;;;;;;;5.13;4.73;;;4.10;97.20;;;;;;1713472;28;20253;-67
2023/01/18 07:11:10;;;;;;;5.20;4.68;;;4.10;97.20;;;;;;1710498;28;20206;-67
2023/01/18 07:12:02;;;;;;;4.85;4.45;;;4.10;97.20;;;;;;1706769;28;20229;-67
2023/01/18 07:12:53;;;;;;;5.43;4.93;;;4.10;97.20;;;;;;1713947;28;20239;-67
2023/01/18 07:13:45;;;;;;;5.07;4.67;;;4.10;97.20;;;;;;1713499;28;20202;-67
2023/01/18 07:14:36;;;;;;;6.28;4.97;;;4.10;97.20;;;;;;1713460;28;20213;-67
2023/01/18 07:15:27;;;;;;;6.00;5.40;;;4.10;97.20;;;;;;1712982;28;20205;-68
2023/01/18 07:16:19;;;;;;;6.15;5.57;;;4.10;97.20;;;;;;1712808;28;20201;-67
2023/01/18 07:17:11;;;;;;;6.40;4.80;;;4.10;97.20;;;;;;1713149;28;20288;-67
2023/01/18 07:18:03;;;;;;;5.30;4.57;;;4.10;97.20;;;;;;1713284;28;20210;-68
2023/01/18 07:18:57;;;;;;;4.90;4.50;;;4.10;97.20;;;;;;1713447;28;20280;-67
2023/01/18 07:19:48;;;;;;;5.50;4.95;;;4.10;97.20;;;;;;1713295;28;20730;-66
2023/01/18 07:20:40;;;;;;;5.82;5.15;;;4.10;97.20;;;;;;1713268;28;20590;-67
2023/01/18 07:21:31;;;;;;;6.00;5.50;;;4.10;97.20;;;;;;1713375;28;20210;-67
2023/01/18 07:22:23;;;;;;;6.00;5.50;;;4.10;97.20;;;;;;1712575;28;20193;-66
2023/01/18 07:23:14;;;;;;;6.93;6.10;;;4.10;97.20;;;;;;1719896;28;20212;-67
2023/01/18 07:24:06;;;;;;;6.40;5.90;;;4.10;97.20;;;;;;1720083;28;20201;-66
2023/01/18 07:24:57;;;;;;;6.50;5.45;;;4.10;97.20;;;;;;1719886;28;20340;-69
2023/01/18 07:25:48;;;;;;;6.00;5.50;;;4.10;97.20;;;;;;1712707;28;20257;-67
2023/01/18 07:26:39;;;;;;;6.53;5.80;;;4.10;97.20;;;;;;1712972;28;20198;-67
2023/01/18 07:27:31;;;;;;;6.47;5.97;;;4.10;97.20;;;;;;1712957;28;20202;-67
2023/01/18 07:28:22;;;;;;;6.35;5.53;;;4.10;97.20;;;;;;1713055;28;20206;-67
2023/01/18 07:29:13;;;;;;;6.00;5.40;;;4.10;97.20;;;;;;1713311;28;20193;-67
2023/01/18 07:30:05;;;;;;;5.40;4.90;;;4.10;97.20;;;;;;1713053;28;20210;-67
2023/01/18 07:30:57;;;;;;;7.82;5.20;;;4.10;97.20;;;;;;1712894;28;20272;-67
2023/01/18 07:31:48;;;;;;;6.20;5.47;;;4.10;97.20;;;;;;1713623;28;20335;-67
2023/01/18 07:32:44;;;;;;;5.93;5.27;;;4.10;97.20;;;;;;1713211;28;20252;-66
2023/01/18 07:33:36;;;;;;;5.45;5.05;;;4.10;97.20;;;;;;1713012;28;20190;-68
2023/01/18 07:34:28;;;;;;;5.78;5.28;;;4.10;97.20;;;;;;1713259;28;20202;-67
2023/01/18 07:35:20;;;;;;;5.60;5.10;;;4.10;97.20;;;;;;1713484;28;20663;-67
2023/01/18 07:36:12;;;;;;;6.38;5.78;;;4.20;97.20;;;;;;1713209;28;20212;-67
2023/01/18 07:37:03;;;;;;;6.20;5.60;;;4.20;97.20;;;;;;1714003;28;20198;-68
2023/01/18 07:37:55;;;;;;;5.83;5.23;;;4.20;97.20;;;;;;1714789;28;20229;-67
2023/01/18 07:38:46;;;;;;;9.10;5.25;;;4.20;97.20;;;;;;1715049;28;20205;-67
2023/01/18 07:39:37;;;;;;;5.57;4.80;;;4.20;97.20;;;;;;1711352;28;20203;-66
2023/01/18 07:40:28;;;;;;;4.43;4.03;;;4.20;97.20;;;;;;1714732;28;20445;-67
2023/01/18 07:41:21;;;;;;;10.10;7.97;;;4.20;97.20;;;;;;1715012;28;20205;-67
2023/01/18 07:42:12;;;;;;;7.80;7.00;;;4.20;97.20;;;;;;1714975;28;20264;-68
2023/01/18 07:43:04;;;;;;;8.40;7.50;;;4.20;97.20;;;;;;1714801;28;20257;-67
2023/01/18 07:43:55;;;;;;;7.60;6.57;;;4.20;97.20;;;;;;1714997;28;20221;-67
2023/01/18 07:44:46;;;;;;;10.70;7.60;;;4.20;97.20;;;;;;1715027;28;20208;-67
2023/01/18 07:45:37;;;;;;;7.55;6.75;;;4.20;97.20;;;;;;1714068;28;20202;-67
2023/01/18 07:46:29;;;;;;;7.93;7.20;;;4.30;97.20;;;;;;1714904;28;20204;-68
2023/01/18 07:47:20;;;;;;;10.75;9.65;;;4.30;97.20;;;;;;1713553;28;20449;-68
2023/01/18 07:48:11;;;;;;;11.10;8.73;;;4.20;97.20;;;;;;1714837;28;20205;-67
2023/01/18 07:49:04;;;;;;;17.15;9.98;;;4.20;97.20;;;;;;1714819;28;20337;-68
2023/01/18 07:49:56;;;;;;;11.70;9.93;;;4.20;97.20;;;;;;1714930;28;20210;-68
2023/01/18 07:50:52;;;;;;;10.02;9.02;;;4.30;97.20;;;;;;1714833;28;20680;-67
2023/01/18 07:51:44;;;;;;;8.00;7.18;;;4.30;97.20;;;;;;1714734;28;20206;-68
2023/01/18 07:52:34;;;;;;;6.72;6.03;;;4.30;97.20;;;;;;1714867;28;20197;-67
2023/01/18 07:53:27;;;;;;;8.20;7.40;;;4.30;97.20;;;;;;1714681;28;20198;-67
2023/01/18 07:54:18;;;;;;;9.20;7.43;;;4.30;97.20;;;;;;1708215;28;20261;-67
2023/01/18 07:55:12;;;;;;;8.40;7.65;;;4.30;97.20;;;;;;1708793;28;20228;-67
2023/01/18 07:56:05;;;;;;;11.20;10.10;;;4.30;97.20;;;;;;1713994;28;20213;-67
2023/01/18 07:56:57;;;;;;;13.15;9.75;;;4.30;97.20;;;;;;1714568;28;20272;-67
2023/01/18 07:57:47;;;;;;;10.27;8.30;;;4.40;97.20;;;;;;1714619;28;20201;-67
2023/01/18 07:58:39;;;;;;;7.20;6.60;;;4.40;97.20;;;;;;1714471;28;20197;-67
2023/01/18 07:59:32;;;;;;;7.60;5.55;;;4.40;97.20;;;;;;1714921;28;20213;-67
2023/01/18 08:00:23;;;;;;;6.00;5.45;;;4.40;97.20;;;;;;1709485;28;20714;-67
2023/01/18 08:01:17;;;;;;;4.90;4.43;;;4.40;97.20;;;;;;1708947;28;20606;-68
2023/01/18 08:02:11;;;;;;;6.10;4.97;;;4.40;97.20;;;;;;1714623;28;20453;-67
2023/01/18 08:03:02;;;;;;;4.82;4.43;;;4.40;97.20;;;;;;1714554;28;20194;-67
2023/01/18 08:03:53;;;;;;;5.68;5.13;;;4.40;97.20;;;;;;1714388;28;20205;-67
2023/01/18 08:04:49;;;;;;;6.70;5.40;;;4.40;97.20;;;;;;1714418;28;20225;-68
2023/01/18 08:05:41;;;;;;;5.75;4.97;;;4.40;97.20;;;;;;1713731;28;20468;-68
2023/01/18 08:06:33;;;;;;;5.95;5.38;;;4.50;97.20;;;;;;1714103;28;20201;-67
2023/01/18 08:07:24;;;;;;;6.32;5.40;;;4.50;97.20;;;;;;1714343;28;20198;-67
2023/01/18 08:08:17;;;;;;;5.43;4.95;;;4.50;97.20;;;;;;1714719;28;20202;-68
2023/01/18 08:09:08;;;;;;;5.50;5.00;;;4.50;97.20;;;;;;1714724;28;20284;-67
2023/01/18 08:10:00;;;;;;;6.73;5.67;;;4.50;97.20;;;;;;1714333;28;20201;-67
2023/01/18 08:10:53;;;;;;;6.90;5.30;;;4.50;97.20;;;;;;1714733;28;20233;-67
2023/01/18 08:11:45;;;;;;;7.28;5.70;;;4.40;97.20;;;;;;1714551;28;20198;-67
2023/01/18 08:12:36;;;;;;;6.13;5.32;;;4.40;97.20;;;;;;1714146;28;20198;-67
2023/01/18 08:13:28;;;;;;;6.50;5.40;;;4.40;97.20;;;;;;1714566;28;20197;-68
2023/01/18 08:14:19;;;;;;;7.03;5.95;;;4.40;97.20;;;;;;1714747;28;20205;-67
2023/01/18 08:15:11;;;;;;;7.15;5.95;;;4.40;97.20;;;;;;1714779;28;20206;-67
2023/01/18 08:16:04;;;;;;;6.25;5.50;;;4.40;97.20;;;;;;1713294;28;20205;-67
2023/01/18 08:16:56;;;;;;;7.05;5.20;;;4.50;97.20;;;;;;1708124;28;20206;-67
2023/01/18 08:17:49;;;;;;;5.95;5.22;;;4.50;97.20;;;;;;1711123;28;20209;-67
2023/01/18 08:18:43;;;;;;;6.15;5.55;;;4.50;97.20;;;;;;1714738;28;20201;-67
2023/01/18 08:19:34;;;;;;;6.35;5.75;;;4.50;97.20;;;;;;1707406;29;20693;-68
2023/01/18 08:20:28;;;;;;;7.13;6.37;;;4.50;97.20;;;;;;1707424;28;20640;-67
2023/01/18 08:21:19;;;;;;;7.78;6.20;;;4.60;97.20;;;;;;1708059;29;20461;-68
2023/01/18 08:22:10;;;;;;;6.80;6.20;;;4.60;97.20;;;;;;1713949;28;20202;-67
2023/01/18 08:23:02;;;;;;;6.77;6.10;;;4.60;97.20;;;;;;1714822;28;20288;-67
2023/01/18 08:23:54;;;;;;;7.65;6.32;;;4.60;97.20;;;;;;1713727;28;20233;-67
2023/01/18 08:24:44;;;;;;;6.93;5.72;;;4.60;97.20;;;;;;1714667;28;20225;-67
2023/01/18 08:25:36;;;;;;;6.03;5.47;;;4.70;97.20;;;;;;1713986;28;20201;-67
2023/01/18 08:26:27;;;;;;;8.52;6.18;;;4.70;97.20;;;;;;1714836;28;20198;-67
2023/01/18 08:27:19;;;;;;;7.60;6.97;;;4.70;97.20;;;;;;1714492;28;20205;-68
2023/01/18 08:28:10;;;;;;;6.32;5.72;;;4.80;97.20;;;;;;1714362;28;20202;-67
2023/01/18 08:29:01;;;;;;;6.83;6.23;;;4.80;97.20;;;;;;1714360;28;20201;-67
2023/01/18 08:29:52;;;;;;;6.97;6.20;;;4.80;97.20;;;;;;1714569;28;20448;-66
2023/01/18 08:30:46;;;;;;;7.73;6.90;;;4.80;97.20;;;;;;1714439;28;20237;-67
2023/01/18 08:31:37;;;;;;;6.95;6.35;;;4.90;97.20;;;;;;1714604;28;20209;-67
2023/01/18 08:32:28;;;;;;;7.17;6.47;;;4.80;97.20;;;;;;1714272;28;20201;-67
2023/01/18 08:33:19;;;;;;;6.80;5.90;;;4.80;97.20;;;;;;1714593;28;20305;-67
2023/01/18 08:34:11;;;;;;;8.37;6.27;;;4.80;97.20;;;;;;1711916;28;20202;-67
2023/01/18 08:35:02;;;;;;;9.00;6.90;;;4.80;97.20;;;;;;1713784;28;20205;-67
2023/01/18 08:35:55;;;;;;;8.50;6.87;;;4.90;97.20;;;;;;1713852;28;20406;-67
2023/01/18 08:36:46;;;;;;;7.03;6.32;;;4.90;97.20;;;;;;1714123;28;20209;-67
2023/01/18 08:37:38;;;;;;;7.55;6.60;;;4.90;97.20;;;;;;1714167;28;20198;-67
2023/01/18 08:38:30;;;;;;;7.88;7.05;;;4.90;97.20;;;;;;1714545;28;20205;-67
2023/01/18 08:39:20;;;;;;;7.57;6.97;;;4.90;97.20;;;;;;1714308;28;20201;-67
2023/01/18 08:40:13;;;;;;;8.20;7.40;;;4.80;97.20;;;;;;1714374;28;20223;-68
2023/01/18 08:41:04;;;;;;;8.10;7.28;;;4.80;97.20;;;;;;1715160;28;20202;-67
2023/01/18 08:41:56;;;;;;;7.50;6.85;;;4.80;97.20;;;;;;1715278;28;20209;-67
2023/01/18 08:42:47;;;;;;;8.60;7.80;;;4.80;97.20;;;;;;1714953;28;20229;-67
2023/01/18 08:43:39;;;;;;;7.45;6.78;;;4.80;97.20;;;;;;1714513;28;20659;-67
2023/01/18 08:44:30;;;;;;;7.55;6.85;;;4.80;97.20;;;;;;1713005;28;20194;-68
2023/01/18 08:45:22;;;;;;;8.00;7.30;;;4.80;97.20;;;;;;1714260;28;20208;-66
2023/01/18 08:46:12;;;;;;;7.97;7.20;;;4.80;97.20;;;;;;1713853;28;20453;-67
2023/01/18 08:47:04;;;;;;;10.53;8.20;;;4.80;97.20;;;;;;1714369;28;20201;-67
2023/01/18 08:47:56;;;;;;;7.40;6.80;;;4.80;97.20;;;;;;1714097;28;20205;-66
2023/01/18 08:48:49;;;;;;;7.18;6.40;;;4.80;97.20;;;;;;1714459;28;20206;-66
2023/01/18 08:49:40;;;;;;;7.22;6.57;;;4.80;97.20;;;;;;1714427;28;20202;-68
2023/01/18 08:50:34;;;;;;;6.93;6.33;;;4.80;97.20;;;;;;1714569;28;20232;-67
2023/01/18 08:51:26;;;;;;;7.40;6.80;;;4.80;97.20;;;;;;1714179;28;20226;-67
2023/01/18 08:52:18;;;;;;;8.00;6.57;;;4.80;97.20;;;;;;1714588;28;20231;-67
2023/01/18 08:53:09;;;;;;;6.95;6.35;;;4.80;97.20;;;;;;1714074;28;20840;-67
2023/01/18 08:54:00;;;;;;;6.40;5.90;;;4.80;97.20;;;;;;1714146;28;20568;-67
2023/01/18 08:54:51;;;;;;;6.72;6.10;;;4.80;97.20;;;;;;1707855;28;20210;-67
2023/01/18 08:55:43;;;;;;;6.60;6.00;;;4.80;97.20;;;;;;1711594;28;20225;-68
2023/01/18 08:56:34;;;;;;;5.85;5.35;;;4.80;97.20;;;;;;1714346;28;20209;-67
2023/01/18 08:57:27;;;;;;;6.50;6.00;;;4.80;97.20;;;;;;1714278;28;20204;-67
2023/01/18 08:58:19;;;;;;;6.88;6.10;;;4.70;97.20;;;;;;1714349;28;20445;-67
2023/01/18 08:59:10;;;;;;;6.45;5.85;;;4.70;97.20;;;;;;1714240;28;20209;-68
2023/01/18 09:00:03;;;;;;;7.33;6.20;;;4.70;97.20;;;;;;1713938;28;20678;-68
2023/01/18 09:00:57;;;;;;;6.75;6.15;;;4.70;97.20;;;;;;1714464;28;20230;-67
2023/01/18 09:01:48;;;;;;;7.15;5.55;;;4.70;97.20;;;;;;1714192;28;20310;-67
2023/01/18 09:02:40;;;;;;;6.10;5.60;;;4.70;97.20;;;;;;1714426;28;20202;-67
2023/01/18 09:03:31;;;;;;;6.78;6.18;;;4.70;97.20;;;;;;1714445;28;20848;-66
2023/01/18 09:04:22;;;;;;;6.70;6.00;;;4.70;97.20;;;;;;1712087;28;20633;-66
2023/01/18 09:05:13;;;;;;;7.15;6.55;;;4.60;97.20;;;;;;1710132;28;20211;-68
2023/01/18 09:06:08;;;;;;;6.60;6.00;;;4.60;97.20;;;;;;1713599;28;20198;-67
2023/01/18 09:07:00;;;;;;;7.20;5.95;;;4.70;97.20;;;;;;1713721;28;20260;-67
2023/01/18 09:07:52;;;;;;;10.10;7.25;;;4.60;97.20;;;;;;1714130;28;20225;-67
2023/01/18 09:08:45;;;;;;;7.75;7.05;;;4.60;97.20;;;;;;1714214;28;20213;-67
2023/01/18 09:09:37;;;;;;;7.70;6.75;;;4.70;97.20;;;;;;1714032;28;20194;-67
2023/01/18 09:10:28;;;;;;;6.75;6.20;;;4.70;97.20;;;;;;1714540;28;20205;-67
2023/01/18 09:11:20;;;;;;;6.43;5.80;;;4.60;97.20;;;;;;1714045;28;20225;-67
2023/01/18 09:12:11;;;;;;;7.78;6.95;;;4.60;97.20;;;;;;1714068;28;20205;-67
2023/01/18 09:13:03;;;;;;;6.70;6.20;;;4.60;97.20;;;;;;1714316;28;20206;-67
2023/01/18 09:13:54;;;;;;;7.28;6.57;;;4.60;97.20;;;;;;1714055;28;20209;-67
2023/01/18 09:14:46;;;;;;;8.73;7.57;;;4.60;97.20;;;;;;1709468;28;20205;-67
2023/01/18 09:15:37;;;;;;;8.50;7.70;;;4.60;97.20;;;;;;1706939;28;20586;-67
2023/01/18 09:16:29;;;;;;;14.63;12.20;;;4.60;97.20;;;;;;1707228;28;20221;-67
2023/01/18 09:17:20;;;;;;;14.10;11.38;;;4.70;97.20;;;;;;1712974;28;20476;-67
2023/01/18 09:18:11;;;;;;;12.50;11.20;;;4.70;97.20;;;;;;1714410;28;20296;-67
2023/01/18 09:19:05;;;;;;;8.90;8.10;;;4.80;97.20;;;;;;1714136;28;20198;-67
2023/01/18 09:19:56;;;;;;;9.90;8.85;;;4.80;97.20;;;;;;1714071;28;20202;-67
2023/01/18 09:20:47;;;;;;;9.10;8.27;;;4.80;97.20;;;;;;1714362;28;20262;-67
2023/01/18 09:21:39;;;;;;;8.23;7.03;;;4.90;97.20;;;;;;1714157;28;20225;-66
2023/01/18 09:22:31;;;;;;;8.43;7.70;;;4.90;97.20;;;;;;1714307;28;20240;-68
2023/01/18 09:23:23;;;;;;;9.48;8.02;;;4.90;97.20;;;;;;1714316;28;20656;-66
2023/01/18 09:24:14;;;;;;;8.93;8.13;;;5.00;97.20;;;;;;1713834;28;20210;-67
2023/01/18 09:25:06;;;;;;;7.70;7.00;;;5.00;97.20;;;;;;1714327;28;20194;-68
2023/01/18 09:26:02;;;;;;;7.60;6.90;;;5.00;97.20;;;;;;1713494;28;20788;-67
2023/01/18 09:26:54;;;;;;;7.45;6.85;;;5.00;97.20;;;;;;1713926;28;20252;-68
2023/01/18 09:27:45;;;;;;;8.20;7.40;;;5.10;97.20;;;;;;1713884;28;20209;-68
2023/01/18 09:28:37;;;;;;;8.50;7.70;;;5.10;97.20;;;;;;1714113;28;20197;-68
2023/01/18 09:29:28;;;;;;;8.10;7.40;;;5.10;97.20;;;;;;1712094;28;20571;-68
2023/01/18 09:30:20;;;;;;;8.10;7.50;;;5.10;97.20;;;;;;1711972;28;20212;-67
2023/01/18 09:31:11;;;;;;;7.40;6.70;;;5.10;97.20;;;;;;1714494;28;20922;-67
2023/01/18 09:32:03;;;;;;;6.85;6.20;;;5.10;97.20;;;;;;1714250;28;20210;-68
2023/01/18 09:32:55;;;;;;;6.63;5.95;;;5.20;97.20;;;;;;1714212;28;20235;-67
2023/01/18 09:33:46;;;;;;;7.70;6.75;;;5.20;97.20;;;;;;1714082;28;20668;-68
2023/01/18 09:34:37;;;;;;;8.18;6.45;;;5.20;97.20;;;;;;1714018;28;20198;-67
2023/01/18 09:35:29;;;;;;;5.93;5.43;;;5.30;97.20;;;;;;1714310;28;20216;-68
2023/01/18 09:36:25;;;;;;;6.80;6.20;;;5.30;97.20;;;;;;1713220;28;20202;-68
2023/01/18 09:37:17;;;;;;;6.78;6.18;;;5.30;97.20;;;;;;1714025;28;20939;-68
2023/01/18 09:38:11;;;;;;;5.90;5.40;;;5.30;97.20;;;;;;1712947;28;20788;-67
2023/01/18 09:39:05;;;;;;;6.00;5.40;;;5.30;97.20;;;;;;1714272;28;20213;-67
2023/01/18 09:39:55;;;;;;;5.65;5.15;;;5.30;97.20;;;;;;1713755;28;20209;-68
2023/01/18 09:40:47;;;;;;;6.50;5.20;;;5.30;97.20;;;;;;1714246;28;20304;-68
2023/01/18 09:41:41;;;;;;;6.28;5.68;;;5.30;97.20;;;;;;1714093;28;20210;-68
2023/01/18 09:42:43;;;;;;;7.22;6.13;;;5.30;97.20;;;;;;1714276;28;20209;-67
2023/01/18 09:43:37;;;;;;;6.82;6.18;;;5.30;97.20;;;;;;1711740;28;20191;-68
2023/01/18 09:44:33;;;;;;;7.63;6.93;;;5.30;97.20;;;;;;1707792;28;20209;-67
2023/01/18 09:45:30;;;;;;;6.50;5.90;;;5.40;97.20;;;;;;1707991;28;20206;-68
2023/01/18 09:46:24;;;;;;;6.53;5.93;;;5.40;97.20;;;;;;1713528;28;20209;-66
2023/01/18 09:47:19;;;;;;;6.78;6.18;;;5.40;97.20;;;;;;1713693;28;20206;-67
2023/01/18 09:48:22;;;;;;;5.88;5.38;;;5.50;97.20;;;;;;1713927;28;20213;-67
2023/01/18 09:49:19;;;;;;;6.00;5.50;;;5.60;97.20;;;;;;1714248;28;20668;-67
2023/01/18 09:50:14;;;;;;;5.97;5.38;;;5.70;97.20;;;;;;1713153;28;20194;-67
2023/01/18 09:51:12;;;;;;;6.55;5.95;;;5.70;97.20;;;;;;1714161;28;20260;-67
2023/01/18 09:52:14;;;;;;;5.43;4.93;;;5.80;97.20;;;;;;1708497;28;20663;-67
2023/01/18 09:53:20;;;;;;;5.47;4.97;;;5.90;97.20;;;;;;1707529;28;20195;-68
2023/01/18 09:54:22;;;;;;;5.82;5.25;;;6.00;97.20;;;;;;1707221;29;20210;-67
2023/01/18 09:55:22;;;;;;;5.68;5.00;;;6.10;97.20;;;;;;1714013;28;20252;-68
2023/01/18 09:56:18;;;;;;;5.57;5.10;;;6.10;97.20;;;;;;1713190;28;20206;-67
2023/01/18 09:57:19;;;;;;;4.95;4.55;;;6.10;97.20;;;;;;1707915;28;20270;-68
2023/01/18 09:58:24;;;;;;;6.28;4.93;;;6.10;97.20;;;;;;1707472;28;20191;-67
2023/01/18 09:59:20;;;;;;;5.35;4.85;;;6.20;97.20;;;;;;1707213;28;20195;-67
2023/01/18 10:00:20;;;;;;;5.20;4.40;;;6.20;97.20;;;;;;1707092;28;20237;-67
2023/01/18 10:01:14;;;;;;;5.28;4.78;;;6.30;97.20;;;;;;1707516;28;20210;-67
2023/01/18 10:02:18;;;;;;;5.85;5.03;;;6.30;97.20;;;;;;1707449;28;20630;-67
2023/01/18 10:03:14;;;;;;;5.93;5.35;;;6.40;97.20;;;;;;1711541;28;20563;-67
2023/01/18 10:04:12;;;;;;;5.93;5.32;;;6.30;97.20;;;;;;1713875;28;20680;-67
2023/01/18 10:05:07;;;;;;;5.00;4.60;;;6.30;97.20;;;;;;1713418;28;20210;-67
2023/01/18 10:06:07;;;;;;;5.82;5.25;;;6.30;97.20;;;;;;1713140;28;20201;-67
2023/01/18 10:07:01;;;;;;;6.05;5.55;;;6.40;97.20;;;;;;1713518;28;20214;-68
2023/01/18 10:08:01;;;;;;;6.38;5.25;;;6.40;97.20;;;;;;1713860;28;20209;-67
2023/01/18 10:08:59;;;;;;;5.18;4.68;;;6.50;97.20;;;;;;1713917;28;20245;-67
2023/01/18 10:09:55;;;;;;;5.65;4.82;;;6.50;97.20;;;;;;1711066;28;20191;-67
2023/01/18 10:10:54;;;;;;;9.07;6.00;;;6.60;97.20;;;;;;1707799;28;20227;-66
2023/01/18 10:11:53;;;;;;;7.03;5.80;;;6.70;97.20;;;;;;1713780;28;20249;-67
2023/01/18 10:12:51;;;;;;;6.13;5.53;;;6.70;97.20;;;;;;1713908;28;20194;-67
2023/01/18 10:13:49;;;;;;;5.22;4.82;;;6.70;97.20;;;;;;1707354;28;20195;-67
2023/01/18 10:14:46;;;;;;;6.05;5.50;;;6.70;97.20;;;;;;1707284;28;20199;-67
2023/01/18 10:15:37;;;;;;;5.65;5.15;;;6.70;97.20;;;;;;1706774;28;20194;-67
2023/01/18 10:16:30;;;;;;;8.03;5.97;;;6.60;97.20;;;;;;1713277;28;20193;-67
2023/01/18 10:17:30;;;;;;;5.53;5.05;;;6.60;97.20;;;;;;1713580;28;20206;-68
2023/01/18 10:18:21;;;;;;;5.53;5.10;;;6.60;97.20;;;;;;1713880;28;20190;-67
2023/01/18 10:19:20;;;;;;;5.68;5.18;;;6.50;97.20;;;;;;1713748;28;20209;-67
2023/01/18 10:20:15;;;;;;;5.97;5.00;;;6.50;97.20;;;;;;1708790;28;20203;-67
2023/01/18 10:21:06;;;;;;;5.10;4.70;;;6.50;97.20;;;;;;1707334;28;20206;-67
2023/01/18 10:22:06;;;;;;;5.82;5.25;;;6.50;97.20;;;;;;1707144;28;20262;-67
2023/01/18 10:23:01;;;;;;;5.60;5.10;;;6.50;97.20;;;;;;1707565;28;20215;-67
2023/01/18 10:24:20;;;;;;;5.57;5.13;;;6.50;97.20;;;;;;1707357;28;20611;-67
2023/01/18 10:25:17;;;;;;;5.90;5.40;;;6.50;97.20;;;;;;1707444;28;20191;-67
2023/01/18 10:26:16;;;;;;;5.55;5.10;;;6.50;97.20;;;;;;1709541;28;20225;-67
2023/01/18 10:27:21;;;;;;;6.63;5.68;;;6.50;97.20;;;;;;1713742;28;20229;-67
2023/01/18 10:28:26;;;;;;;5.47;5.00;;;6.40;97.20;;;;;;1713589;28;20221;-67
2023/01/18 10:29:29;;;;;;;5.53;5.03;;;6.40;97.20;;;;;;1713933;28;20555;-67
2023/01/18 10:30:43;;;;;;;4.82;4.40;;;6.30;97.20;;;;;;1712438;28;20199;-67
2023/01/18 10:31:45;;;;;;;5.80;5.22;;;6.20;97.20;;;;;;1713450;28;20202;-68
2023/01/18 10:32:37;;;;;;;5.15;4.70;;;6.20;97.20;;;;;;1713620;28;20284;-67
2023/01/18 10:33:33;;;;;;;5.10;4.60;;;6.10;97.20;;;;;;1713841;28;20213;-67
2023/01/18 10:34:30;;;;;;;5.78;4.68;;;6.10;97.20;;;;;;1713600;28;20277;-67
2023/01/18 10:35:29;;;;;;;5.05;4.55;;;6.10;97.20;;;;;;1712752;28;20201;-68
2023/01/18 10:36:26;;;;;;;4.82;4.43;;;6.10;97.20;;;;;;1713056;28;20198;-68
2023/01/18 10:37:26;;;;;;;5.13;4.72;;;6.10;97.20;;;;;;1713680;28;20221;-67
2023/01/18 10:38:20;;;;;;;4.20;3.90;;;6.10;97.20;;;;;;1713812;28;20186;-67
2023/01/18 10:39:26;;;;;;;4.32;4.00;;;6.10;97.20;;;;;;1713974;28;20252;-68